Time;durP1;ratioP1;P1;durP2;ratioP2;P2;SDS_P1;SDS_P2;PMS_P1;PMS_P2;Temp;Humidity;BMP_temperature;BMP_pressure;BME280_temperature;BME280_humidity;BME280_pressure;Samples;Min_cycle;Max_cycle;Signal;HPM_P1;HPM_P2
2022/01/30 00:01:23;;;;;;;3.15;1.38;;;;;;;;;;5060600;28;20037;-71
2022/01/30 00:03:48;;;;;;;2.58;1.27;;;;;;;;;;5060141;28;20083;-71
2022/01/30 00:06:14;;;;;;;0.95;0.82;;;;;;;;;;5061916;28;20033;-71
2022/01/30 00:08:39;;;;;;;1.00;0.90;;;;;;;;;;5062283;28;20044;-71
2022/01/30 00:11:13;;;;;;;0.90;0.90;;;;;;;;;;5060686;28;20086;-71
2022/01/30 00:13:42;;;;;;;1.10;0.90;;;;;;;;;;5064523;28;20040;-71
2022/01/30 00:16:11;;;;;;;;;;;;;;;;;;5061044;28;20127;-74
2022/01/30 00:21:14;;;;;;;1.27;0.90;;;;;;;;;;5061303;28;20036;-71
2022/01/30 00:23:52;;;;;;;1.65;1.00;;;;;;;;;;5061398;28;20040;-71
2022/01/30 00:26:19;;;;;;;1.02;1.00;;;;;;;;;;5061178;28;20034;-71
2022/01/30 00:28:45;;;;;;;0.75;0.75;;;;;;;;;;5061461;28;20040;-71
2022/01/30 00:31:14;;;;;;;0.95;0.95;;;;;;;;;;5060159;28;20043;-71
2022/01/30 00:33:42;;;;;;;1.15;1.05;;;;;;;;;;5061439;28;20033;-71
2022/01/30 00:36:07;;;;;;;1.30;1.20;;;;;;;;;;5060775;28;20409;-71
2022/01/30 00:38:34;;;;;;;1.02;0.90;;;;;;;;;;5037248;28;20054;-71
2022/01/30 00:40:59;;;;;;;0.80;0.80;;;;;;;;;;5061548;28;20047;-71
2022/01/30 00:43:25;;;;;;;0.93;0.80;;;;;;;;;;5059220;28;20036;-71
2022/01/30 00:45:50;;;;;;;0.85;0.85;;;;;;;;;;5043357;28;20044;-72
2022/01/30 00:48:16;;;;;;;1.10;1.00;;;;;;;;;;5059064;28;20016;-71
2022/01/30 00:50:42;;;;;;;0.90;0.90;;;;;;;;;;5059987;28;20382;-71
2022/01/30 00:53:08;;;;;;;1.15;1.05;;;;;;;;;;5059932;28;20090;-71
2022/01/30 00:55:34;;;;;;;1.02;1.00;;;;;;;;;;5061043;28;20110;-71
2022/01/30 00:58:01;;;;;;;0.65;0.65;;;;;;;;;;5076727;28;20124;-72
2022/01/30 01:00:28;;;;;;;0.70;0.70;;;;;;;;;;5059030;28;20039;-72
2022/01/30 01:02:53;;;;;;;1.45;0.65;;;;;;;;;;5061075;28;20041;-73
2022/01/30 01:05:20;;;;;;;0.70;0.70;;;;;;;;;;5061099;28;20035;-73
2022/01/30 01:07:48;;;;;;;0.60;0.60;;;;;;;;;;5060887;28;20036;-73
2022/01/30 01:10:28;;;;;;;1.23;1.10;;;;;;;;;;5058228;28;20044;-73
2022/01/30 01:13:20;;;;;;;0.95;0.80;;;;;;;;;;5059492;28;20036;-73
2022/01/30 01:23:48;;;;;;;0.93;0.80;;;;;;;;;;5059235;28;20047;-71
2022/01/30 01:26:17;;;;;;;0.88;0.88;;;;;;;;;;5042189;28;20526;-71
2022/01/30 01:28:43;;;;;;;0.90;0.90;;;;;;;;;;5059145;28;20473;-71
2022/01/30 01:31:09;;;;;;;0.80;0.80;;;;;;;;;;5058613;28;20040;-70
2022/01/30 01:36:16;;;;;;;1.10;1.00;;;;;;;;;;5060616;28;20056;-72
2022/01/30 01:38:43;;;;;;;0.73;0.73;;;;;;;;;;5061112;28;20437;-74
2022/01/30 01:41:11;;;;;;;0.80;0.80;;;;;;;;;;5061154;28;20036;-73
2022/01/30 01:43:36;;;;;;;1.00;0.80;;;;;;;;;;5052415;28;20546;-71
2022/01/30 01:46:03;;;;;;;0.60;0.60;;;;;;;;;;5058761;28;20044;-71
2022/01/30 01:48:34;;;;;;;0.77;0.77;;;;;;;;;;5060661;28;20123;-73
2022/01/30 01:51:15;;;;;;;0.80;0.80;;;;;;;;;;5059343;28;20028;-73
2022/01/30 01:53:41;;;;;;;0.65;0.63;;;;;;;;;;5060751;28;20038;-72
2022/01/30 01:56:07;;;;;;;0.68;0.68;;;;;;;;;;5062680;28;20512;-73
2022/01/30 01:58:34;;;;;;;0.73;0.70;;;;;;;;;;5062821;28;20492;-73
2022/01/30 02:01:24;;;;;;;0.57;0.57;;;;;;;;;;5052061;28;20070;-71
2022/01/30 02:03:50;;;;;;;0.80;0.80;;;;;;;;;;5062993;28;20074;-71
2022/01/30 02:06:19;;;;;;;0.70;0.70;;;;;;;;;;5078356;28;20071;-71
2022/01/30 02:08:52;;;;;;;0.55;0.55;;;;;;;;;;5062437;28;20520;-71
2022/01/30 02:11:35;;;;;;;0.82;0.50;;;;;;;;;;5065032;28;20523;-75
2022/01/30 02:25:13;;;;;;;0.52;0.52;;;;;;;;;;5062517;28;20036;-71
2022/01/30 02:27:39;;;;;;;0.90;0.60;;;;;;;;;;5061679;28;20040;-71
2022/01/30 02:30:18;;;;;;;0.80;0.80;;;;;;;;;;5045569;28;20552;-72
2022/01/30 02:32:46;;;;;;;0.77;0.77;;;;;;;;;;5062098;28;20048;-69
2022/01/30 02:35:12;;;;;;;0.75;0.75;;;;;;;;;;5079436;28;20040;-72
2022/01/30 02:37:38;;;;;;;0.60;0.60;;;;;;;;;;5044926;28;20033;-71
2022/01/30 02:40:07;;;;;;;0.60;0.60;;;;;;;;;;5062224;28;20043;-71
2022/01/30 02:42:36;;;;;;;1.75;0.63;;;;;;;;;;5062436;28;20044;-71
2022/01/30 02:45:07;;;;;;;0.60;0.60;;;;;;;;;;5065003;28;20150;-72
2022/01/30 02:52:39;;;;;;;0.60;0.60;;;;;;;;;;5064995;28;20049;-71
2022/01/30 02:55:05;;;;;;;0.50;0.50;;;;;;;;;;5061381;28;20036;-71
2022/01/30 02:57:31;;;;;;;0.75;0.52;;;;;;;;;;5061999;28;20151;-73
2022/01/30 02:59:56;;;;;;;0.50;0.50;;;;;;;;;;5077430;28;20070;-72
2022/01/30 03:02:22;;;;;;;0.50;0.50;;;;;;;;;;5061710;28;20029;-72
2022/01/30 03:04:47;;;;;;;0.50;0.50;;;;;;;;;;5063315;28;20052;-79
2022/01/30 03:07:13;;;;;;;0.45;0.45;;;;;;;;;;5062058;28;20035;-71
2022/01/30 03:09:48;;;;;;;1.05;0.70;;;;;;;;;;5078878;28;20082;-74
2022/01/30 03:12:13;;;;;;;0.40;0.40;;;;;;;;;;5067740;28;20037;-74
2022/01/30 03:14:39;;;;;;;0.55;0.55;;;;;;;;;;5061171;28;20039;-71
2022/01/30 03:17:04;;;;;;;0.60;0.60;;;;;;;;;;5061692;28;20101;-76
2022/01/30 03:19:30;;;;;;;0.32;0.32;;;;;;;;;;5061544;28;20039;-73
2022/01/30 03:21:55;;;;;;;0.50;0.50;;;;;;;;;;5060546;28;20123;-73
2022/01/30 03:24:21;;;;;;;0.50;0.50;;;;;;;;;;5061569;28;20693;-73
2022/01/30 03:26:47;;;;;;;1.33;0.60;;;;;;;;;;5044480;28;20024;-73
2022/01/30 03:29:37;;;;;;;0.40;0.40;;;;;;;;;;5063437;28;20044;-74
2022/01/30 03:32:03;;;;;;;0.93;0.50;;;;;;;;;;5061511;28;20034;-71
2022/01/30 03:34:29;;;;;;;0.82;0.75;;;;;;;;;;5060507;28;20489;-77
2022/01/30 03:36:54;;;;;;;0.32;0.32;;;;;;;;;;5068497;28;20044;-74
2022/01/30 03:39:21;;;;;;;0.93;0.60;;;;;;;;;;5061246;28;20032;-72
2022/01/30 03:41:48;;;;;;;0.50;0.50;;;;;;;;;;5044873;28;20202;-78
2022/01/30 03:44:16;;;;;;;0.52;0.52;;;;;;;;;;5064731;28;20103;-71
2022/01/30 03:46:42;;;;;;;0.57;0.57;;;;;;;;;;5062140;28;20051;-72
2022/01/30 03:49:07;;;;;;;0.40;0.40;;;;;;;;;;5044388;28;20040;-73
2022/01/30 03:51:40;;;;;;;0.50;0.50;;;;;;;;;;5060969;28;20039;-71
2022/01/30 03:54:17;;;;;;;0.88;0.50;;;;;;;;;;5059809;28;20489;-71
2022/01/30 03:56:43;;;;;;;0.40;0.40;;;;;;;;;;5060578;28;20051;-73
2022/01/30 03:59:08;;;;;;;0.70;0.50;;;;;;;;;;5060882;28;20040;-71
2022/01/30 04:01:35;;;;;;;0.40;0.40;;;;;;;;;;5060899;28;20048;-71
2022/01/30 04:04:00;;;;;;;0.57;0.57;;;;;;;;;;5060768;28;20148;-71
2022/01/30 04:06:26;;;;;;;0.50;0.50;;;;;;;;;;5059683;28;20517;-71
2022/01/30 04:08:53;;;;;;;0.50;0.50;;;;;;;;;;5060315;28;20036;-71
2022/01/30 04:11:34;;;;;;;0.50;0.30;;;;;;;;;;5060597;28;20152;-71
2022/01/30 04:14:20;;;;;;;0.50;0.50;;;;;;;;;;5061366;28;20040;-71
2022/01/30 04:17:09;;;;;;;0.50;0.50;;;;;;;;;;5055225;28;20497;-71
2022/01/30 04:19:58;;;;;;;0.75;0.70;;;;;;;;;;5058213;28;20154;-71
2022/01/30 04:23:02;;;;;;;0.50;0.50;;;;;;;;;;5079027;28;20071;-71
2022/01/30 04:25:46;;;;;;;0.50;0.50;;;;;;;;;;5078934;28;20159;-71
2022/01/30 04:28:30;;;;;;;0.50;0.50;;;;;;;;;;5065743;28;20054;-71
2022/01/30 04:31:13;;;;;;;0.65;0.60;;;;;;;;;;5060002;28;20039;-71
2022/01/30 04:33:54;;;;;;;0.90;0.70;;;;;;;;;;5076893;28;20064;-71
2022/01/30 04:36:43;;;;;;;0.47;0.47;;;;;;;;;;5061609;28;20082;-71
2022/01/30 04:52:26;;;;;;;0.77;0.77;;;;;;;;;;5048077;28;20056;-71
2022/01/30 04:58:50;;;;;;;1.00;0.90;;;;;;;;;;5059741;28;20119;-71
2022/01/30 05:09:43;;;;;;;0.85;0.85;;;;;;;;;;5061077;28;20599;-71
2022/01/30 05:12:34;;;;;;;1.67;1.00;;;;;;;;;;5075412;28;20222;-71
2022/01/30 05:15:10;;;;;;;1.05;1.05;;;;;;;;;;5059161;28;20432;-71
2022/01/30 05:18:08;;;;;;;1.00;0.95;;;;;;;;;;5059166;28;20063;-71
2022/01/30 05:20:42;;;;;;;1.35;1.00;;;;;;;;;;5059696;28;20028;-71
2022/01/30 05:23:16;;;;;;;1.55;1.42;;;;;;;;;;5058502;28;20485;-71
2022/01/30 05:26:07;;;;;;;1.10;1.10;;;;;;;;;;5059039;28;20047;-71
2022/01/30 05:28:36;;;;;;;1.38;1.27;;;;;;;;;;5059117;28;20140;-71
2022/01/30 05:31:22;;;;;;;1.30;1.20;;;;;;;;;;5059113;28;20036;-71
2022/01/30 05:34:15;;;;;;;1.10;1.02;;;;;;;;;;5058391;28;20400;-71
2022/01/30 05:37:08;;;;;;;1.65;1.55;;;;;;;;;;5062362;28;20139;-71
2022/01/30 05:39:53;;;;;;;2.95;1.23;;;;;;;;;;5060644;28;20055;-71
2022/01/30 05:42:41;;;;;;;0.90;0.90;;;;;;;;;;5068393;28;20055;-71
2022/01/30 05:48:17;;;;;;;3.53;1.70;;;;;;;;;;5059138;28;20040;-71
2022/01/30 05:50:56;;;;;;;1.63;1.52;;;;;;;;;;5059068;28;20134;-71
2022/01/30 05:53:28;;;;;;;1.48;1.38;;;;;;;;;;5043562;28;20038;-71
2022/01/30 05:56:13;;;;;;;0.85;0.85;;;;;;;;;;5059108;28;20064;-72
2022/01/30 05:58:40;;;;;;;1.40;1.30;;;;;;;;;;5059274;28;20032;-71
2022/01/30 06:01:24;;;;;;;1.95;1.75;;;;;;;;;;5058674;28;20983;-71
2022/01/30 06:03:52;;;;;;;2.15;1.27;;;;;;;;;;5059056;28;20036;-71
2022/01/30 06:06:17;;;;;;;2.60;1.52;;;;;;;;;;5058473;28;20085;-71
2022/01/30 06:08:46;;;;;;;0.82;0.82;;;;;;;;;;5058883;28;20112;-72
2022/01/30 06:11:13;;;;;;;2.97;1.52;;;;;;;;;;5058852;28;20047;-71
2022/01/30 06:13:39;;;;;;;1.67;1.58;;;;;;;;;;5058993;28;20401;-71
2022/01/30 06:16:06;;;;;;;0.90;0.90;;;;;;;;;;5058493;28;20051;-71
2022/01/30 06:18:32;;;;;;;1.98;1.80;;;;;;;;;;5058896;28;20040;-71
2022/01/30 06:21:06;;;;;;;3.35;1.80;;;;;;;;;;5059949;28;20156;-71
2022/01/30 06:24:00;;;;;;;2.15;1.98;;;;;;;;;;5060400;28;20147;-71
2022/01/30 06:26:44;;;;;;;4.60;1.67;;;;;;;;;;5059874;28;20059;-71
2022/01/30 06:29:35;;;;;;;1.65;1.55;;;;;;;;;;5060444;28;20426;-73
2022/01/30 06:32:16;;;;;;;1.85;1.75;;;;;;;;;;5060476;28;20048;-73
2022/01/30 06:35:00;;;;;;;1.88;1.77;;;;;;;;;;5059999;28;20067;-73
2022/01/30 06:37:44;;;;;;;1.67;1.58;;;;;;;;;;5060111;28;20051;-73
2022/01/30 06:40:33;;;;;;;2.15;1.95;;;;;;;;;;5043721;28;20376;-73
2022/01/30 06:43:17;;;;;;;1.38;1.27;;;;;;;;;;5063678;28;20490;-72
2022/01/30 06:46:02;;;;;;;1.27;1.17;;;;;;;;;;5062159;28;20059;-73
2022/01/30 06:48:47;;;;;;;1.35;1.25;;;;;;;;;;5052202;28;20089;-72
2022/01/30 06:51:42;;;;;;;1.50;1.40;;;;;;;;;;5003380;28;20586;-72
2022/01/30 06:54:26;;;;;;;2.08;1.63;;;;;;;;;;5041832;28;20521;-73
2022/01/30 06:57:10;;;;;;;1.50;1.40;;;;;;;;;;5042993;28;20051;-73
2022/01/30 06:59:55;;;;;;;2.25;1.90;;;;;;;;;;5038766;28;20098;-73
2022/01/30 07:02:39;;;;;;;2.15;1.95;;;;;;;;;;5041159;28;20102;-75
2022/01/30 07:05:25;;;;;;;2.00;1.90;;;;;;;;;;5041653;28;20110;-73
2022/01/30 07:08:04;;;;;;;2.65;2.40;;;;;;;;;;5039964;28;20033;-72
2022/01/30 07:10:30;;;;;;;2.25;2.05;;;;;;;;;;5041677;28;20531;-74
2022/01/30 07:12:55;;;;;;;2.15;2.05;;;;;;;;;;5041241;28;20071;-74
2022/01/30 07:15:21;;;;;;;2.40;2.05;;;;;;;;;;5039795;28;20057;-73
2022/01/30 07:17:46;;;;;;;2.35;2.15;;;;;;;;;;5042372;28;20060;-70
2022/01/30 07:20:12;;;;;;;2.25;2.05;;;;;;;;;;5041950;28;20489;-72
2022/01/30 07:22:37;;;;;;;1.88;1.77;;;;;;;;;;5041013;28;20033;-73
2022/01/30 07:25:08;;;;;;;4.30;2.53;;;;;;;;;;5040380;28;20041;-72
2022/01/30 07:27:37;;;;;;;2.50;2.08;;;;;;;;;;5042347;28;20118;-71
2022/01/30 07:30:06;;;;;;;1.90;1.80;;;;;;;;;;5041789;28;20033;-72
2022/01/30 07:32:32;;;;;;;1.83;1.55;;;;;;;;;;5041112;28;20041;-71
2022/01/30 07:34:58;;;;;;;1.65;1.55;;;;;;;;;;5040198;28;20416;-70
2022/01/30 07:37:23;;;;;;;2.15;1.85;;;;;;;;;;5042283;28;20040;-72
2022/01/30 07:39:49;;;;;;;1.50;1.40;;;;;;;;;;5038643;28;20284;-72
2022/01/30 07:42:15;;;;;;;1.65;1.50;;;;;;;;;;5051668;28;20394;-70
2022/01/30 07:44:40;;;;;;;1.38;1.27;;;;;;;;;;5038668;28;20033;-72
2022/01/30 07:47:06;;;;;;;2.13;1.40;;;;;;;;;;5040329;28;20108;-72
2022/01/30 07:49:31;;;;;;;0.88;0.88;;;;;;;;;;5039800;28;20559;-72
2022/01/30 07:51:57;;;;;;;1.70;1.60;;;;;;;;;;5036929;28;20063;-73
2022/01/30 07:54:22;;;;;;;1.52;1.42;;;;;;;;;;5039484;28;20099;-71
2022/01/30 07:56:48;;;;;;;1.70;1.60;;;;;;;;;;5039021;28;20036;-72
2022/01/30 07:59:13;;;;;;;1.50;1.40;;;;;;;;;;5040850;28;20040;-73
2022/01/30 08:01:39;;;;;;;3.17;1.27;;;;;;;;;;5040690;28;20044;-73
2022/01/30 08:04:07;;;;;;;1.80;1.27;;;;;;;;;;5040909;28;20045;-72
2022/01/30 08:06:33;;;;;;;0.98;0.98;;;;;;;;;;5039884;28;20055;-73
2022/01/30 08:08:59;;;;;;;2.88;1.45;;;;;;;;;;5039524;28;20041;-72
2022/01/30 08:11:24;;;;;;;6.38;1.60;;;;;;;;;;5040626;28;20692;-71
2022/01/30 08:13:50;;;;;;;1.00;0.90;;;;;;;;;;5040950;28;20076;-71
2022/01/30 08:16:15;;;;;;;1.73;1.15;;;;;;;;;;5040030;28;20040;-72
2022/01/30 08:18:41;;;;;;;2.35;1.55;;;;;;;;;;5023475;28;20045;-72
2022/01/30 08:21:06;;;;;;;3.58;2.05;;;;;;;;;;5041606;28;20041;-72
2022/01/30 08:23:33;;;;;;;2.08;1.25;;;;;;;;;;5040820;28;20052;-72
2022/01/30 08:26:00;;;;;;;3.38;1.50;;;;;;;;;;5040647;28;20064;-72
2022/01/30 08:28:26;;;;;;;4.25;1.70;;;;;;;;;;5041179;28;20072;-72
2022/01/30 08:30:51;;;;;;;3.38;1.33;;;;;;;;;;5040598;28;20127;-73
2022/01/30 08:33:17;;;;;;;6.03;1.90;;;;;;;;;;5040585;28;20580;-72
2022/01/30 08:35:43;;;;;;;7.00;1.30;;;;;;;;;;5041226;28;20359;-71
2022/01/30 08:38:10;;;;;;;5.00;1.88;;;;;;;;;;5041289;28;20039;-72
2022/01/30 08:40:36;;;;;;;5.85;1.52;;;;;;;;;;5039571;28;20103;-71
2022/01/30 08:43:01;;;;;;;7.90;2.13;;;;;;;;;;5041966;28;20045;-72
2022/01/30 08:45:27;;;;;;;2.50;1.50;;;;;;;;;;5039868;28;20032;-72
2022/01/30 08:47:52;;;;;;;6.93;1.73;;;;;;;;;;5024038;28;20094;-73
2022/01/30 08:50:20;;;;;;;9.45;1.83;;;;;;;;;;5040405;28;20020;-70
2022/01/30 08:52:45;;;;;;;4.45;1.20;;;;;;;;;;5040232;28;20615;-71
2022/01/30 08:55:12;;;;;;;2.40;1.20;;;;;;;;;;5021418;28;20120;-72
2022/01/30 08:57:38;;;;;;;2.42;1.45;;;;;;;;;;5041109;28;20405;-71
2022/01/30 09:00:06;;;;;;;5.00;1.48;;;;;;;;;;5041070;28;20494;-69
2022/01/30 09:02:32;;;;;;;4.18;1.40;;;;;;;;;;5040410;28;20048;-71
2022/01/30 09:04:57;;;;;;;4.70;1.52;;;;;;;;;;5039118;28;20820;-69
2022/01/30 09:07:23;;;;;;;3.00;1.60;;;;;;;;;;5040046;28;20409;-73
2022/01/30 09:09:48;;;;;;;2.92;2.08;;;;;;;;;;5040010;28;20072;-68
2022/01/30 09:12:14;;;;;;;4.60;1.40;;;;;;;;;;5040429;28;20040;-69
2022/01/30 09:14:41;;;;;;;2.97;1.35;;;;;;;;;;5039919;28;20121;-70
2022/01/30 09:17:13;;;;;;;3.35;1.13;;;;;;;;;;5035189;28;20037;-71
2022/01/30 09:19:40;;;;;;;7.30;1.40;;;;;;;;;;5039125;28;20037;-70
2022/01/30 09:22:07;;;;;;;5.13;1.40;;;;;;;;;;5037791;28;20529;-70
2022/01/30 09:24:32;;;;;;;2.75;1.23;;;;;;;;;;5038226;28;20069;-70
2022/01/30 09:26:58;;;;;;;2.17;1.55;;;;;;;;;;5036321;28;20604;-70
2022/01/30 09:29:23;;;;;;;5.32;1.65;;;;;;;;;;5038365;28;20510;-71
2022/01/30 09:31:49;;;;;;;4.75;1.50;;;;;;;;;;5038753;28;20036;-70
2022/01/30 09:34:14;;;;;;;3.40;1.10;;;;;;;;;;5037709;28;20047;-71
2022/01/30 09:36:40;;;;;;;3.47;1.10;;;;;;;;;;5022644;28;20040;-70
2022/01/30 09:39:05;;;;;;;2.55;1.48;;;;;;;;;;5039428;28;20095;-72
2022/01/30 09:41:32;;;;;;;5.72;1.50;;;;;;;;;;5040476;28;20037;-70
2022/01/30 09:44:00;;;;;;;1.20;1.05;;;;;;;;;;5041078;28;20079;-71
2022/01/30 09:46:30;;;;;;;3.10;1.02;;;;;;;;;;5039785;28;20033;-71
2022/01/30 09:48:57;;;;;;;17.52;2.00;;;;;;;;;;5038280;28;20725;-72
2022/01/30 09:51:23;;;;;;;3.25;1.25;;;;;;;;;;5040499;28;20037;-70
2022/01/30 09:53:48;;;;;;;3.13;1.50;;;;;;;;;;5038782;28;20072;-70
2022/01/30 09:56:14;;;;;;;5.90;1.48;;;;;;;;;;5039632;28;20041;-70
2022/01/30 09:58:39;;;;;;;3.00;1.73;;;;;;;;;;5038575;28;20040;-70
2022/01/30 10:01:05;;;;;;;1.13;0.93;;;;;;;;;;5038799;28;20414;-72
2022/01/30 10:03:30;;;;;;;2.55;1.50;;;;;;;;;;5039939;28;20040;-70
2022/01/30 10:06:10;;;;;;;6.07;1.67;;;;;;;;;;5039577;28;20482;-69
2022/01/30 10:08:42;;;;;;;4.60;1.30;;;;;;;;;;5039828;28;20040;-70
2022/01/30 10:11:27;;;;;;;5.85;1.92;;;;;;;;;;5040232;28;20047;-70
2022/01/30 10:14:10;;;;;;;7.40;1.98;;;;;;;;;;5039211;28;20156;-69
2022/01/30 10:16:47;;;;;;;2.95;1.80;;;;;;;;;;5044009;28;20036;-71
2022/01/30 10:19:21;;;;;;;2.83;1.17;;;;;;;;;;5044057;28;20083;-70
2022/01/30 10:21:48;;;;;;;2.88;1.40;;;;;;;;;;5044302;28;20478;-69
2022/01/30 10:24:25;;;;;;;4.25;1.70;;;;;;;;;;5043248;28;20037;-70
2022/01/30 10:26:52;;;;;;;6.53;2.20;;;;;;;;;;5044394;28;20033;-70
2022/01/30 10:29:19;;;;;;;5.50;1.58;;;;;;;;;;5042090;28;20048;-69
2022/01/30 10:31:56;;;;;;;3.30;1.17;;;;;;;;;;5044396;28;20178;-70
2022/01/30 10:34:22;;;;;;;5.70;1.90;;;;;;;;;;5040722;28;20444;-69
2022/01/30 10:36:47;;;;;;;5.82;1.42;;;;;;;;;;5039083;28;20047;-70
2022/01/30 10:39:17;;;;;;;3.85;1.58;;;;;;;;;;5039848;28;20028;-70
2022/01/30 10:41:45;;;;;;;4.65;1.20;;;;;;;;;;5039365;28;20048;-70
2022/01/30 10:44:11;;;;;;;5.72;2.15;;;;;;;;;;5040587;28;20393;-70
2022/01/30 10:46:41;;;;;;;6.93;1.90;;;;;;;;;;5041326;28;21047;-70
2022/01/30 10:49:13;;;;;;;6.70;2.20;;;;;;;;;;5040412;28;20123;-70
2022/01/30 10:51:50;;;;;;;4.55;1.63;;;;;;;;;;5040119;28;20025;-70
2022/01/30 10:54:15;;;;;;;3.03;1.95;;;;;;;;;;5040485;28;20036;-70
2022/01/30 10:56:41;;;;;;;3.17;1.40;;;;;;;;;;5040197;28;20409;-70
2022/01/30 10:59:24;;;;;;;3.83;1.63;;;;;;;;;;5041312;28;20062;-70
2022/01/30 11:01:51;;;;;;;6.60;2.28;;;;;;;;;;5039733;28;20036;-70
2022/01/30 11:04:31;;;;;;;3.95;1.40;;;;;;;;;;5040698;28;20051;-70
2022/01/30 11:07:01;;;;;;;2.38;1.35;;;;;;;;;;5041852;28;20494;-70
2022/01/30 11:09:33;;;;;;;6.25;2.03;;;;;;;;;;5041382;28;20516;-71
2022/01/30 11:12:02;;;;;;;3.38;1.20;;;;;;;;;;5041222;28;20037;-69
2022/01/30 11:14:38;;;;;;;4.13;2.00;;;;;;;;;;5041623;28;20048;-70
2022/01/30 11:17:06;;;;;;;9.70;2.53;;;;;;;;;;5042071;28;20042;-70
2022/01/30 11:19:37;;;;;;;3.97;1.58;;;;;;;;;;5042930;28;20047;-70
2022/01/30 11:22:05;;;;;;;8.13;1.92;;;;;;;;;;5043100;28;20041;-70
2022/01/30 11:24:42;;;;;;;2.47;1.33;;;;;;;;;;5043323;28;20035;-70
2022/01/30 11:27:09;;;;;;;5.18;1.67;;;;;;;;;;5042216;28;20037;-71
2022/01/30 11:29:37;;;;;;;9.65;1.65;;;;;;;;;;5041955;28;20099;-72
2022/01/30 11:32:05;;;;;;;4.82;1.70;;;;;;;;;;5043242;28;20037;-70
2022/01/30 11:34:32;;;;;;;7.78;1.63;;;;;;;;;;5042830;28;20036;-69
2022/01/30 11:36:59;;;;;;;6.07;1.60;;;;;;;;;;5041035;28;20032;-71
2022/01/30 11:39:24;;;;;;;5.13;1.90;;;;;;;;;;5041836;28;20037;-70
2022/01/30 11:42:20;;;;;;;5.78;1.83;;;;;;;;;;5041039;28;20037;-71
2022/01/30 11:45:10;;;;;;;3.70;1.58;;;;;;;;;;5042271;28;20025;-72
2022/01/30 11:47:58;;;;;;;3.45;1.55;;;;;;;;;;5041080;28;20039;-70
2022/01/30 11:50:28;;;;;;;5.88;1.90;;;;;;;;;;5041756;28;20052;-73
2022/01/30 11:53:01;;;;;;;5.30;1.67;;;;;;;;;;5042148;28;20474;-71
2022/01/30 11:55:43;;;;;;;5.65;1.65;;;;;;;;;;5042931;28;20041;-72
2022/01/30 11:58:34;;;;;;;4.25;1.75;;;;;;;;;;5042790;28;20037;-72
2022/01/30 12:01:05;;;;;;;2.90;1.67;;;;;;;;;;5043300;28;20079;-71
2022/01/30 12:03:35;;;;;;;6.40;1.92;;;;;;;;;;5045943;28;20051;-70
2022/01/30 12:06:19;;;;;;;5.78;2.10;;;;;;;;;;5043044;28;20095;-72
2022/01/30 12:08:55;;;;;;;4.03;1.38;;;;;;;;;;5043203;28;20122;-70
2022/01/30 12:11:47;;;;;;;6.20;1.75;;;;;;;;;;5041950;28;20032;-72
2022/01/30 12:14:21;;;;;;;3.22;1.40;;;;;;;;;;5046187;28;20040;-72
2022/01/30 12:16:48;;;;;;;3.20;1.55;;;;;;;;;;5044885;28;20474;-71
2022/01/30 12:19:18;;;;;;;5.60;1.60;;;;;;;;;;5044363;28;20052;-71
2022/01/30 12:21:44;;;;;;;2.38;1.17;;;;;;;;;;5045977;28;20040;-73
2022/01/30 12:24:31;;;;;;;3.33;1.20;;;;;;;;;;5045032;28;20036;-72
2022/01/30 12:27:02;;;;;;;6.45;1.38;;;;;;;;;;5045281;28;20478;-72
2022/01/30 12:29:37;;;;;;;2.88;1.40;;;;;;;;;;5045354;28;20416;-74
2022/01/30 12:32:21;;;;;;;1.00;0.90;;;;;;;;;;5045277;28;20067;-71
2022/01/30 12:34:56;;;;;;;1.48;0.73;;;;;;;;;;5046138;28;20093;-73
2022/01/30 12:37:27;;;;;;;6.10;1.67;;;;;;;;;;5045205;28;20091;-75
2022/01/30 12:39:53;;;;;;;5.82;2.20;;;;;;;;;;5045897;28;20082;-71
2022/01/30 12:42:20;;;;;;;4.25;1.77;;;;;;;;;;5046965;28;20028;-72
2022/01/30 12:44:47;;;;;;;6.38;1.77;;;;;;;;;;5045582;28;20033;-72
2022/01/30 12:47:14;;;;;;;9.38;1.88;;;;;;;;;;5044188;28;20083;-71
2022/01/30 12:49:43;;;;;;;5.97;1.65;;;;;;;;;;5047436;28;20048;-71
2022/01/30 12:52:20;;;;;;;6.10;1.48;;;;;;;;;;5047722;28;20553;-72
2022/01/30 12:54:49;;;;;;;3.90;1.20;;;;;;;;;;5048326;28;20036;-73
2022/01/30 12:57:19;;;;;;;3.17;1.38;;;;;;;;;;5045595;28;20066;-72
2022/01/30 12:59:56;;;;;;;11.00;1.45;;;;;;;;;;5039810;28;20041;-72
2022/01/30 13:02:22;;;;;;;1.75;1.20;;;;;;;;;;5039801;28;20039;-74
2022/01/30 13:05:01;;;;;;;1.73;1.17;;;;;;;;;;5039853;28;20401;-72
2022/01/30 13:07:27;;;;;;;3.20;1.00;;;;;;;;;;5039760;28;20040;-75
2022/01/30 13:10:13;;;;;;;2.70;1.63;;;;;;;;;;5041405;28;20040;-73
2022/01/30 13:12:41;;;;;;;1.23;0.98;;;;;;;;;;5040222;28;20414;-72
2022/01/30 13:15:18;;;;;;;3.35;1.30;;;;;;;;;;5039812;28;20509;-76
2022/01/30 13:17:44;;;;;;;5.35;1.60;;;;;;;;;;5040142;28;20182;-74
2022/01/30 13:20:12;;;;;;;2.22;1.10;;;;;;;;;;5039546;28;20494;-75
2022/01/30 13:22:42;;;;;;;3.97;1.30;;;;;;;;;;5039940;28;20058;-75
2022/01/30 13:25:16;;;;;;;9.38;1.70;;;;;;;;;;5039703;28;20036;-73
2022/01/30 13:27:44;;;;;;;4.53;1.38;;;;;;;;;;5038859;28;20028;-74
2022/01/30 13:30:17;;;;;;;10.43;2.35;;;;;;;;;;5038199;28;20441;-73
2022/01/30 13:32:43;;;;;;;1.10;0.75;;;;;;;;;;5039774;28;20108;-71
2022/01/30 13:35:13;;;;;;;8.52;1.95;;;;;;;;;;5039908;28;20136;-73
2022/01/30 13:37:41;;;;;;;5.35;1.05;;;;;;;;;;5038712;28;20119;-74
2022/01/30 13:40:21;;;;;;;4.70;1.65;;;;;;;;;;5039395;28;20048;-76
2022/01/30 13:48:09;;;;;;;4.28;1.45;;;;;;;;;;5038520;28;20090;-72
2022/01/30 13:50:53;;;;;;;6.10;1.98;;;;;;;;;;5041952;28;20032;-74
2022/01/30 13:53:24;;;;;;;3.67;1.42;;;;;;;;;;5043336;28;20033;-74
2022/01/30 13:55:51;;;;;;;5.75;1.45;;;;;;;;;;5042319;28;20569;-70
2022/01/30 13:58:19;;;;;;;5.00;1.48;;;;;;;;;;5022501;28;20044;-74
2022/01/30 14:00:45;;;;;;;4.63;1.70;;;;;;;;;;5041687;28;20055;-72
2022/01/30 14:03:10;;;;;;;4.15;1.63;;;;;;;;;;5039630;28;20041;-74
2022/01/30 14:05:42;;;;;;;4.65;1.83;;;;;;;;;;5040809;28;20039;-73
2022/01/30 14:08:14;;;;;;;6.85;1.42;;;;;;;;;;5042982;28;20037;-70
2022/01/30 14:10:40;;;;;;;3.55;1.60;;;;;;;;;;5043733;28;20040;-75
2022/01/30 14:13:13;;;;;;;3.15;1.20;;;;;;;;;;5042194;28;20401;-75
2022/01/30 14:15:39;;;;;;;5.93;1.50;;;;;;;;;;5043846;28;20683;-76
2022/01/30 14:18:14;;;;;;;7.65;1.55;;;;;;;;;;5041437;28;20112;-75
2022/01/30 14:20:42;;;;;;;4.68;0.95;;;;;;;;;;5043539;28;20139;-75
2022/01/30 14:23:13;;;;;;;4.43;2.00;;;;;;;;;;5043671;28;20485;-76
2022/01/30 14:25:40;;;;;;;5.40;1.80;;;;;;;;;;5043477;28;20032;-72
2022/01/30 14:28:18;;;;;;;3.03;1.35;;;;;;;;;;5042988;28;20063;-72
2022/01/30 14:30:43;;;;;;;3.30;1.50;;;;;;;;;;5042597;28;20069;-72
2022/01/30 14:33:09;;;;;;;4.50;1.48;;;;;;;;;;5042886;28;20052;-76
2022/01/30 14:35:36;;;;;;;6.85;1.60;;;;;;;;;;5042706;28;20102;-74
2022/01/30 14:38:07;;;;;;;3.00;1.17;;;;;;;;;;5042402;28;20037;-75
2022/01/30 14:40:36;;;;;;;4.82;1.30;;;;;;;;;;5043407;28;20029;-78
2022/01/30 14:43:07;;;;;;;4.47;1.27;;;;;;;;;;5043797;28;20604;-72
2022/01/30 14:45:36;;;;;;;3.33;1.08;;;;;;;;;;5044186;28;20413;-73
2022/01/30 14:48:03;;;;;;;4.10;1.30;;;;;;;;;;5043184;28;20036;-70
2022/01/30 14:50:30;;;;;;;5.07;1.33;;;;;;;;;;5046401;28;20033;-74
2022/01/30 14:52:56;;;;;;;3.50;1.38;;;;;;;;;;5046713;28;20739;-71
2022/01/30 14:55:22;;;;;;;5.70;1.65;;;;;;;;;;5044315;28;20123;-70
2022/01/30 14:57:49;;;;;;;4.50;1.63;;;;;;;;;;5041023;28;20113;-72
2022/01/30 15:00:18;;;;;;;9.43;2.33;;;;;;;;;;5043040;28;20059;-74
2022/01/30 15:02:47;;;;;;;4.70;1.77;;;;;;;;;;5041246;28;20067;-70
2022/01/30 15:05:14;;;;;;;4.47;1.70;;;;;;;;;;5043385;28;20044;-72
2022/01/30 15:07:42;;;;;;;8.70;2.20;;;;;;;;;;5043204;28;20395;-70
2022/01/30 15:10:08;;;;;;;8.20;1.90;;;;;;;;;;5043446;28;20147;-70
2022/01/30 15:12:35;;;;;;;11.57;2.63;;;;;;;;;;5042889;28;20139;-70
2022/01/30 15:15:01;;;;;;;11.48;2.75;;;;;;;;;;5041910;28;20082;-71
2022/01/30 15:17:34;;;;;;;10.73;2.20;;;;;;;;;;5043516;28;20025;-70
2022/01/30 15:20:01;;;;;;;6.63;2.40;;;;;;;;;;5042489;28;20041;-70
2022/01/30 15:22:27;;;;;;;11.20;2.10;;;;;;;;;;5042293;28;20122;-73
2022/01/30 15:24:54;;;;;;;5.85;2.10;;;;;;;;;;5043157;28;20041;-72
2022/01/30 15:27:20;;;;;;;7.57;2.45;;;;;;;;;;5042686;28;20131;-74
2022/01/30 15:29:46;;;;;;;7.80;1.90;;;;;;;;;;5046152;28;20120;-74
2022/01/30 15:32:12;;;;;;;11.32;2.45;;;;;;;;;;5044561;28;20056;-72
2022/01/30 15:34:37;;;;;;;5.30;2.58;;;;;;;;;;5044531;28;20036;-71
2022/01/30 15:37:04;;;;;;;6.93;2.50;;;;;;;;;;5043174;28;20037;-72
2022/01/30 15:39:30;;;;;;;9.60;2.80;;;;;;;;;;5043920;28;20043;-74
2022/01/30 15:41:55;;;;;;;9.60;2.72;;;;;;;;;;5038637;28;20041;-72
2022/01/30 15:44:22;;;;;;;11.25;2.70;;;;;;;;;;5039781;28;20128;-72
2022/01/30 15:49:32;;;;;;;8.40;2.90;;;;;;;;;;5041605;28;20855;-69
2022/01/30 15:51:58;;;;;;;5.07;1.50;;;;;;;;;;5040414;28;20029;-72
2022/01/30 15:54:23;;;;;;;8.10;2.58;;;;;;;;;;5047971;28;20040;-73
2022/01/30 15:56:49;;;;;;;8.95;1.58;;;;;;;;;;5039346;28;20036;-68
2022/01/30 15:59:19;;;;;;;6.15;2.30;;;;;;;;;;5039981;28;20037;-69
2022/01/30 16:01:49;;;;;;;7.00;2.60;;;;;;;;;;5038387;28;20171;-70
2022/01/30 16:04:16;;;;;;;9.95;2.13;;;;;;;;;;5040674;28;20064;-70
2022/01/30 16:06:43;;;;;;;11.80;2.65;;;;;;;;;;5039802;28;20127;-71
2022/01/30 16:09:19;;;;;;;13.60;3.60;;;;;;;;;;5040458;28;20021;-71
2022/01/30 16:16:56;;;;;;;16.85;3.60;;;;;;;;;;5040213;28;20117;-71